Time;durP1;ratioP1;P1;durP2;ratioP2;P2;SDS_P1;SDS_P2;PMS_P1;PMS_P2;Temp;Humidity;BMP_temperature;BMP_pressure;BME280_temperature;BME280_humidity;BME280_pressure;Samples;Min_cycle;Max_cycle;Signal;HPM_P1;HPM_P2
2023/02/23 00:02:19;;;;;;;13.80;6.80;;;;;;;-2.64;46.82;101137.89;107911;1257;60581;-72
2023/02/23 00:04:47;;;;;;;18.90;9.10;;;;;;;-2.66;47.09;101140.41;107882;1256;61557;-72
2023/02/23 00:07:19;;;;;;;17.20;9.30;;;;;;;-2.70;47.57;101136.98;107780;1257;71913;-70
2023/02/23 00:09:49;;;;;;;16.90;8.50;;;;;;;-2.75;47.91;101139.58;107838;1257;72372;-71
2023/02/23 00:12:19;;;;;;;17.80;9.70;;;;;;;-2.79;48.26;101139.11;107826;1258;71985;-71
2023/02/23 00:14:49;;;;;;;16.70;8.50;;;;;;;-2.83;48.54;101139.34;107811;1257;61360;-70
2023/02/23 00:17:18;;;;;;;19.50;8.40;;;;;;;-2.86;48.62;101142.27;107941;1257;60629;-71
2023/02/23 00:19:49;;;;;;;15.00;6.90;;;;;;;-2.91;48.79;101146.23;107853;1257;74107;-69
2023/02/23 00:22:27;;;;;;;14.40;6.60;;;;;;;-2.95;48.58;101152.73;107930;1257;72818;-71
2023/02/23 00:25:01;;;;;;;12.30;6.40;;;;;;;-2.96;48.55;101154.79;107865;1260;72880;-71
2023/02/23 00:27:32;;;;;;;13.80;6.50;;;;;;;-2.97;48.51;101157.83;107795;1258;60854;-71
2023/02/23 00:30:02;;;;;;;14.10;6.60;;;;;;;-2.98;48.44;101157.20;107944;1256;61664;-71
2023/02/23 00:32:38;;;;;;;11.80;5.80;;;;;;;-2.98;48.49;101161.02;107927;1257;75577;-72
2023/02/23 00:35:17;;;;;;;12.00;6.10;;;;;;;-2.97;48.59;101165.16;107864;1257;73755;-70
2023/02/23 00:37:52;;;;;;;12.10;6.70;;;;;;;-2.99;48.72;101163.98;107928;1257;74079;-71
2023/02/23 00:40:25;;;;;;;12.70;6.40;;;;;;;-3.00;48.56;101165.84;107963;1257;60419;-71
2023/02/23 00:42:57;;;;;;;11.70;6.10;;;;;;;-3.01;48.83;101167.47;107807;1257;60362;-71
2023/02/23 00:45:29;;;;;;;14.70;7.00;;;;;;;-3.03;48.89;101168.73;107840;1257;74503;-72
2023/02/23 00:47:58;;;;;;;14.60;7.60;;;;;;;-3.04;48.94;101170.90;107790;1257;72410;-73
2023/02/23 00:50:43;;;;;;;12.10;6.10;;;;;;;-3.06;49.08;101169.84;107863;1257;71615;-72
2023/02/23 00:53:18;;;;;;;11.20;5.70;;;;;;;-3.08;49.14;101170.42;107814;1257;61365;-70
2023/02/23 00:56:00;;;;;;;12.20;6.50;;;;;;;-3.13;49.06;101172.08;107773;1258;61077;-70
2023/02/23 00:58:55;;;;;;;16.70;6.90;;;;;;;-3.16;49.19;101176.94;107915;1257;74291;-72
2023/02/23 01:01:27;;;;;;;12.10;5.30;;;;;;;-3.19;49.42;101181.73;107816;1261;72173;-70
2023/02/23 01:04:08;;;;;;;12.20;6.40;;;;;;;-3.22;49.54;101185.19;107791;1257;71958;-71
2023/02/23 01:06:52;;;;;;;12.00;6.80;;;;;;;-3.24;49.78;101188.73;107753;1257;62153;-71
2023/02/23 01:09:29;;;;;;;13.90;6.80;;;;;;;-3.27;49.89;101190.73;107869;1257;61602;-72
2023/02/23 01:12:00;;;;;;;10.50;6.20;;;;;;;-3.31;50.18;101192.20;107887;1257;73378;-72
2023/02/23 01:14:30;;;;;;;11.30;5.20;;;;;;;-3.34;50.31;101194.17;107801;1257;74024;-69
2023/02/23 01:16:59;;;;;;;15.30;7.20;;;;;;;-3.37;50.48;101193.80;107857;1257;73878;-71
2023/02/23 01:20:00;;;;;;;15.50;8.10;;;;;;;-3.37;50.69;101202.16;107846;1257;60780;-71
2023/02/23 01:22:30;;;;;;;14.20;7.40;;;;;;;-3.35;50.91;101197.42;107799;1257;62174;-71
2023/02/23 01:24:58;;;;;;;15.80;7.60;;;;;;;-3.34;50.86;101202.95;107884;1257;73536;-71
2023/02/23 01:27:28;;;;;;;16.90;8.10;;;;;;;-3.34;51.13;101202.72;107831;1260;71828;-71
2023/02/23 01:29:56;;;;;;;15.00;7.50;;;;;;;-3.36;51.24;101207.16;107820;1257;72009;-71
2023/02/23 01:32:25;;;;;;;13.70;7.60;;;;;;;-3.37;51.37;101210.05;107790;1257;60617;-71
2023/02/23 01:34:54;;;;;;;17.50;8.20;;;;;;;-3.40;51.61;101214.34;107885;1256;61585;-71
2023/02/23 01:37:23;;;;;;;16.00;8.00;;;;;;;-3.43;51.68;101218.59;107926;1258;74197;-71
2023/02/23 01:39:52;;;;;;;15.40;8.30;;;;;;;-3.46;51.98;101222.42;107817;1257;73475;-71
2023/02/23 01:42:41;;;;;;;17.90;8.00;;;;;;;-3.48;52.19;101225.80;107721;1257;75203;-71
2023/02/23 01:45:22;;;;;;;14.60;7.50;;;;;;;-3.52;52.32;101227.85;107791;1257;60330;-72
2023/02/23 01:47:53;;;;;;;15.00;8.00;;;;;;;-3.55;52.55;101228.98;107848;1257;60419;-72
2023/02/23 01:50:24;;;;;;;15.20;7.80;;;;;;;-3.58;52.60;101231.71;107717;1257;74770;-72
2023/02/23 01:52:52;;;;;;;15.10;7.90;;;;;;;-3.60;52.72;101233.41;107838;1257;72261;-71
2023/02/23 01:55:24;;;;;;;17.60;9.00;;;;;;;-3.64;52.99;101230.86;107907;1256;73540;-72
2023/02/23 01:57:54;;;;;;;14.60;8.60;;;;;;;-3.68;53.17;101235.65;107918;1257;62095;-71
2023/02/23 02:00:24;;;;;;;14.40;7.70;;;;;;;-3.72;53.32;101241.58;107950;1257;60303;-72
2023/02/23 02:02:53;;;;;;;14.70;8.10;;;;;;;-3.75;53.49;101247.30;107713;1261;73217;-72
2023/02/23 02:05:21;;;;;;;14.40;7.90;;;;;;;-3.79;53.64;101240.84;107863;1257;74164;-71
2023/02/23 02:07:57;;;;;;;15.40;8.20;;;;;;;-3.80;53.68;101247.59;107774;1261;73573;-71
2023/02/23 02:10:38;;;;;;;14.10;7.80;;;;;;;-3.83;53.80;101249.55;107957;1257;62322;-71
2023/02/23 02:13:07;;;;;;;16.00;9.20;;;;;;;-3.85;53.99;101250.16;107642;1257;61584;-70
2023/02/23 02:15:39;;;;;;;18.60;9.00;;;;;;;-3.89;54.05;101254.15;107879;1257;72023;-71
2023/02/23 02:18:37;;;;;;;17.80;9.40;;;;;;;-3.92;54.12;101256.36;107684;1257;72786;-69
2023/02/23 02:21:16;;;;;;;18.20;9.60;;;;;;;-3.97;54.23;101258.39;107751;1257;73374;-72
2023/02/23 02:24:14;;;;;;;15.80;8.10;;;;;;;-4.03;54.27;101263.80;107891;1257;62242;-71
2023/02/23 02:26:48;;;;;;;15.40;8.00;;;;;;;-4.10;54.49;101268.63;107789;1257;60339;-72
2023/02/23 02:29:27;;;;;;;16.40;8.80;;;;;;;-4.15;54.65;101270.33;107879;1257;73342;-71
2023/02/23 02:32:15;;;;;;;16.80;9.10;;;;;;;-4.18;54.70;101272.02;107831;1257;71885;-71
2023/02/23 02:35:02;;;;;;;16.80;9.30;;;;;;;-4.20;54.82;101274.53;108182;1256;71501;-71
2023/02/23 02:37:40;;;;;;;17.40;8.40;;;;;;;-4.23;54.94;101274.92;107793;1257;61563;-71
2023/02/23 02:40:21;;;;;;;18.30;9.50;;;;;;;-4.25;55.13;101277.91;107797;1257;59789;-73
2023/02/23 02:43:07;;;;;;;17.60;9.90;;;;;;;-4.26;55.15;101279.21;107808;1257;75081;-71
2023/02/23 02:45:49;;;;;;;16.50;8.80;;;;;;;-4.27;55.19;101278.63;107824;1257;72357;-71
2023/02/23 02:48:20;;;;;;;20.70;10.50;;;;;;;-4.29;55.40;101282.10;107780;1258;72600;-70
2023/02/23 02:51:16;;;;;;;22.60;11.10;;;;;;;-4.31;55.57;101281.91;107894;1257;62288;-71
2023/02/23 02:54:13;;;;;;;17.30;8.30;;;;;;;-4.35;55.61;101286.46;107830;1257;60320;-70
2023/02/23 02:56:43;;;;;;;19.00;9.30;;;;;;;-4.39;55.78;101290.66;107867;1260;72879;-70
2023/02/23 04:18:05;;;;;;;18.40;10.10;;;;;;;-4.99;57.90;101353.96;107774;1257;62197;-71
2023/02/23 04:20:34;;;;;;;19.10;9.90;;;;;;;-5.02;57.78;101352.80;107829;1257;60702;-72
2023/02/23 04:23:03;;;;;;;18.80;9.60;;;;;;;-5.05;57.89;101355.87;107823;1257;73907;-71
2023/02/23 04:25:31;;;;;;;20.30;10.00;;;;;;;-5.09;57.82;101353.65;107788;1256;72085;-71
2023/02/23 04:28:00;;;;;;;18.60;9.50;;;;;;;-5.10;57.96;101356.66;107811;1257;70503;-71
2023/02/23 04:30:29;;;;;;;16.90;8.60;;;;;;;-5.12;57.92;101361.52;107814;1257;62436;-70
2023/02/23 04:32:58;;;;;;;17.00;9.30;;;;;;;-5.14;57.95;101364.48;107891;1257;60577;-70
2023/02/23 04:35:28;;;;;;;16.40;8.40;;;;;;;-5.14;57.92;101368.66;107872;1257;74088;-70
2023/02/23 04:38:00;;;;;;;18.70;9.50;;;;;;;-5.14;58.10;101371.98;107840;1257;73953;-70
2023/02/23 04:40:28;;;;;;;15.00;8.80;;;;;;;-5.18;58.15;101373.86;107794;1258;72113;-71
2023/02/23 04:42:57;;;;;;;15.00;7.90;;;;;;;-5.22;58.06;101378.69;107870;1257;61949;-70
2023/02/23 04:45:25;;;;;;;19.10;9.70;;;;;;;-5.23;58.27;101382.17;107892;1257;61460;-71
2023/02/23 04:47:53;;;;;;;19.20;9.30;;;;;;;-5.23;58.28;101382.14;107779;1257;72883;-70
2023/02/23 04:50:24;;;;;;;17.00;8.70;;;;;;;-5.24;58.39;101386.90;107772;1257;73181;-71
2023/02/23 04:52:52;;;;;;;17.20;9.00;;;;;;;-5.28;58.45;101386.19;107862;1257;71699;-71
2023/02/23 04:55:23;;;;;;;16.50;8.80;;;;;;;-5.28;58.72;101388.32;107881;1256;61909;-72
2023/02/23 04:57:56;;;;;;;19.40;9.90;;;;;;;-5.29;58.64;101390.98;107872;1260;61128;-72
2023/02/23 05:00:25;;;;;;;17.80;9.10;;;;;;;-5.29;58.74;101392.36;108186;1257;74708;-72
2023/02/23 05:02:55;;;;;;;19.50;9.10;;;;;;;-5.28;58.76;101392.42;107794;1257;70861;-70
2023/02/23 05:05:24;;;;;;;18.70;8.80;;;;;;;-5.28;58.84;101400.58;107856;1257;72674;-70
2023/02/23 05:07:53;;;;;;;16.90;9.70;;;;;;;-5.30;59.10;101401.27;107852;1257;61395;-70
2023/02/23 05:10:23;;;;;;;20.60;10.10;;;;;;;-5.28;58.85;101402.13;107799;1258;61182;-71
2023/02/23 05:12:54;;;;;;;21.20;11.20;;;;;;;-5.23;59.08;101406.61;107842;1257;75090;-71
2023/02/23 05:15:22;;;;;;;19.60;10.40;;;;;;;-5.20;59.06;101409.48;107813;1257;72178;-70
2023/02/23 05:17:50;;;;;;;21.60;10.90;;;;;;;-5.18;59.08;101415.17;107832;1258;71762;-71
2023/02/23 05:20:23;;;;;;;22.90;12.00;;;;;;;-5.16;59.11;101418.70;107811;1257;62047;-72
2023/02/23 05:22:51;;;;;;;23.20;11.90;;;;;;;-5.13;59.28;101423.61;107808;1261;60426;-72
2023/02/23 05:25:20;;;;;;;19.00;11.10;;;;;;;-5.08;59.09;101426.88;107849;1256;73398;-72
2023/02/23 05:27:51;;;;;;;23.70;11.20;;;;;;;-5.04;59.18;101432.17;107751;1257;73422;-71
2023/02/23 05:30:20;;;;;;;21.10;11.00;;;;;;;-5.03;59.27;101436.65;107865;1257;72621;-72
2023/02/23 05:32:50;;;;;;;25.70;12.40;;;;;;;-5.05;59.31;101437.89;107774;1257;61034;-71
2023/02/23 05:35:18;;;;;;;23.70;11.90;;;;;;;-5.05;59.33;101438.85;107853;1257;60535;-72
2023/02/23 05:37:46;;;;;;;25.60;13.20;;;;;;;-5.01;59.18;101439.02;107799;1257;71644;-71
2023/02/23 05:40:15;;;;;;;24.20;12.10;;;;;;;-4.95;59.05;101447.42;107864;1257;73326;-71
2023/02/23 05:42:45;;;;;;;27.90;13.00;;;;;;;-4.91;59.11;101448.46;107863;1257;73550;-71
2023/02/23 05:45:13;;;;;;;27.00;12.40;;;;;;;-4.86;59.02;101453.56;107853;1257;60350;-72
2023/02/23 05:47:42;;;;;;;26.90;13.10;;;;;;;-4.81;58.97;101463.76;107823;1257;60460;-71
2023/02/23 05:50:10;;;;;;;27.40;13.00;;;;;;;-4.77;58.96;101463.40;107884;1257;72113;-72
2023/02/23 05:52:40;;;;;;;20.90;11.50;;;;;;;-4.74;58.76;101469.98;107829;1257;72331;-71
2023/02/23 05:55:10;;;;;;;21.20;11.40;;;;;;;-4.67;58.85;101472.96;107864;1257;71465;-71
2023/02/23 05:57:39;;;;;;;22.50;11.50;;;;;;;-4.61;58.67;101479.14;107798;1257;60962;-71
2023/02/23 06:00:09;;;;;;;21.70;11.50;;;;;;;-4.54;58.53;101478.75;107849;1257;60341;-71
2023/02/23 06:02:40;;;;;;;18.80;10.90;;;;;;;-4.49;58.42;101483.45;107879;1257;74076;-71
2023/02/23 06:05:10;;;;;;;23.60;12.50;;;;;;;-4.43;58.37;101486.29;107907;1257;73114;-71
2023/02/23 06:07:38;;;;;;;22.90;11.80;;;;;;;-4.41;58.12;101489.80;107857;1257;72632;-71
2023/02/23 06:10:07;;;;;;;19.50;11.60;;;;;;;-4.36;57.98;101492.11;107908;1257;61159;-71
2023/02/23 06:12:35;;;;;;;19.50;10.40;;;;;;;-4.31;57.83;101489.73;107846;1257;61148;-70
2023/02/23 06:15:04;;;;;;;19.50;10.70;;;;;;;-4.24;57.71;101492.95;107911;1257;72492;-71
2023/02/23 06:17:34;;;;;;;22.00;11.90;;;;;;;-4.20;57.36;101492.41;107840;1257;74543;-71
2023/02/23 06:20:04;;;;;;;20.80;11.70;;;;;;;-4.15;57.13;101495.56;107795;1257;73448;-72
2023/02/23 06:22:35;;;;;;;21.30;11.60;;;;;;;-4.09;57.12;101497.33;107861;1257;61239;-71
2023/02/23 06:25:14;;;;;;;21.30;11.50;;;;;;;-4.03;57.07;101498.84;107867;1257;61253;-71
2023/02/23 06:28:08;;;;;;;17.40;10.40;;;;;;;-3.95;56.75;101505.10;107690;1257;75972;-71
2023/02/23 06:31:10;;;;;;;22.30;11.40;;;;;;;-3.92;56.45;101510.05;107793;1257;73615;-70
2023/02/23 06:33:59;;;;;;;21.40;11.20;;;;;;;-3.86;56.34;101510.48;107710;1257;72172;-70
2023/02/23 06:36:28;;;;;;;20.80;11.20;;;;;;;-3.75;56.12;101514.08;107827;1260;61090;-71
2023/02/23 06:38:57;;;;;;;20.30;11.30;;;;;;;-3.67;55.65;101511.73;107935;1257;61243;-71
2023/02/23 06:41:26;;;;;;;19.00;9.80;;;;;;;-3.63;55.26;101513.80;107940;1257;73968;-70
2023/02/23 06:43:54;;;;;;;24.90;10.40;;;;;;;-3.60;54.85;101514.98;107858;1258;72405;-72
2023/02/23 06:46:23;;;;;;;20.00;11.20;;;;;;;-3.58;54.55;101516.63;107884;1257;73043;-70
2023/02/23 06:48:58;;;;;;;22.00;11.20;;;;;;;-3.53;54.38;101512.09;107732;1257;62104;-69
2023/02/23 06:51:30;;;;;;;21.90;12.00;;;;;;;-3.47;54.06;101517.98;107801;1257;61071;-71
2023/02/23 06:53:58;;;;;;;18.20;10.60;;;;;;;-3.42;53.66;101515.92;107833;1257;74537;-70
2023/02/23 06:56:27;;;;;;;22.60;11.80;;;;;;;-3.36;53.53;101512.27;107830;1257;71654;-71
2023/02/23 06:58:55;;;;;;;23.40;11.80;;;;;;;-3.28;53.19;101513.22;107778;1257;70507;-71
2023/02/23 07:01:24;;;;;;;23.30;12.10;;;;;;;-3.23;52.94;101511.55;107844;1257;61513;-70
2023/02/23 07:03:52;;;;;;;17.10;9.00;;;;;;;-3.18;52.44;101513.02;107774;1257;61075;-71
2023/02/23 07:06:20;;;;;;;21.60;12.10;;;;;;;-3.16;51.94;101514.34;107844;1257;75609;-71
2023/02/23 07:08:49;;;;;;;21.10;11.90;;;;;;;-3.10;51.74;101522.31;107841;1257;73819;-71
2023/02/23 07:11:18;;;;;;;20.30;11.10;;;;;;;-3.03;51.52;101525.54;107825;1257;71536;-72
2023/02/23 07:13:48;;;;;;;19.30;11.40;;;;;;;-2.95;51.36;101526.21;107881;1257;61050;-70
2023/02/23 07:16:16;;;;;;;22.70;12.90;;;;;;;-2.89;50.98;101524.89;107857;1260;61197;-71
2023/02/23 07:18:44;;;;;;;23.80;12.10;;;;;;;-2.83;50.72;101527.59;107831;1257;75698;-71
2023/02/23 07:21:13;;;;;;;17.70;9.00;;;;;;;-2.72;50.38;101524.56;107759;1257;71047;-71
2023/02/23 07:23:41;;;;;;;19.30;10.40;;;;;;;-2.69;49.70;101527.73;107670;1257;72014;-70
2023/02/23 07:26:14;;;;;;;15.60;8.80;;;;;;;-2.71;49.29;101522.45;107700;1257;62132;-71
2023/02/23 07:28:56;;;;;;;21.00;10.10;;;;;;;-2.67;49.31;101522.73;107806;1257;61225;-71
2023/02/23 07:31:45;;;;;;;21.20;11.70;;;;;;;-2.59;49.08;101528.01;107837;1257;75633;-71
2023/02/23 07:34:13;;;;;;;21.50;11.60;;;;;;;-2.55;48.88;101525.84;107873;1260;73583;-71
2023/02/23 07:36:42;;;;;;;20.10;11.40;;;;;;;-2.49;48.97;101524.73;107923;1257;71428;-71
2023/02/23 07:39:10;;;;;;;20.60;10.90;;;;;;;-2.39;48.71;101530.28;107921;1257;62259;-70
2023/02/23 07:41:39;;;;;;;15.70;8.80;;;;;;;-2.29;48.60;101529.27;107896;1257;61356;-70
2023/02/23 07:44:15;;;;;;;19.20;11.20;;;;;;;-2.21;48.15;101532.27;107924;1257;73869;-71
2023/02/23 07:46:45;;;;;;;22.00;11.20;;;;;;;-2.17;48.12;101530.35;107895;1257;72208;-71
2023/02/23 07:49:13;;;;;;;18.60;10.30;;;;;;;-2.06;47.98;101531.92;107942;1257;73369;-73
2023/02/23 07:51:42;;;;;;;18.30;11.20;;;;;;;-1.95;47.53;101536.39;107916;1257;61271;-71
2023/02/23 07:54:11;;;;;;;20.10;10.10;;;;;;;-1.88;47.56;101528.70;107989;1257;62670;-72
2023/02/23 07:56:39;;;;;;;16.10;9.40;;;;;;;-1.75;47.01;101531.80;107834;1257;74112;-71
2023/02/23 07:59:07;;;;;;;19.70;10.40;;;;;;;-1.61;46.63;101532.14;107926;1257;72519;-71
2023/02/23 08:01:37;;;;;;;19.10;9.20;;;;;;;-1.47;46.36;101533.36;107937;1260;73719;-71
2023/02/23 08:04:06;;;;;;;17.60;9.80;;;;;;;-1.34;45.97;101530.33;107932;1257;61257;-74
2023/02/23 08:06:36;;;;;;;15.50;8.80;;;;;;;-1.25;45.28;101530.33;107810;1261;61221;-72
2023/02/23 08:09:05;;;;;;;16.80;8.90;;;;;;;-1.21;44.20;101532.20;107952;1257;74022;-70
2023/02/23 08:11:34;;;;;;;13.30;7.50;;;;;;;-1.18;44.01;101528.92;107988;1257;73769;-71
2023/02/23 08:14:02;;;;;;;15.70;7.50;;;;;;;-1.14;43.25;101529.54;107971;1257;72992;-71
2023/02/23 08:16:31;;;;;;;15.90;7.20;;;;;;;-1.11;42.92;101528.15;107709;1262;62533;-72
2023/02/23 08:19:00;;;;;;;13.90;7.70;;;;;;;-1.09;42.56;101521.38;107970;1257;61260;-73
2023/02/23 08:21:28;;;;;;;16.70;8.90;;;;;;;-1.05;42.20;101522.02;107965;1257;75028;-72
2023/02/23 08:23:58;;;;;;;15.10;8.70;;;;;;;-1.00;41.87;101524.95;107969;1257;72714;-72
2023/02/23 08:26:30;;;;;;;16.90;7.70;;;;;;;-0.97;41.60;101523.23;107939;1258;73795;-72
2023/02/23 08:28:59;;;;;;;15.20;8.00;;;;;;;-0.92;41.27;101519.91;107938;1257;62145;-71
2023/02/23 08:31:28;;;;;;;16.60;8.20;;;;;;;-0.85;41.27;101521.80;107971;1257;61105;-74
2023/02/23 08:33:57;;;;;;;13.40;7.90;;;;;;;-0.80;41.07;101521.69;107942;1257;74860;-71
2023/02/23 08:36:26;;;;;;;16.10;8.30;;;;;;;-0.76;40.58;101524.56;107813;1259;73778;-70
2023/02/23 08:38:54;;;;;;;12.40;7.70;;;;;;;-0.72;40.59;101524.48;107935;1257;73730;-70
2023/02/23 08:41:24;;;;;;;14.00;7.90;;;;;;;-0.60;40.24;101526.21;107959;1257;61129;-72
2023/02/23 08:43:53;;;;;;;14.30;7.50;;;;;;;-0.47;40.07;101523.86;107906;1257;61128;-71
2023/02/23 08:46:21;;;;;;;14.60;8.00;;;;;;;-0.37;39.63;101523.98;107741;1257;74655;-72
2023/02/23 08:48:50;;;;;;;14.20;7.30;;;;;;;-0.26;39.37;101525.83;107988;1257;73152;-71
2023/02/23 08:51:18;;;;;;;14.40;8.10;;;;;;;-0.17;38.91;101522.33;107997;1257;71433;-70
2023/02/23 08:53:47;;;;;;;15.00;8.00;;;;;;;-0.13;38.94;101521.61;107987;1257;61561;-71
2023/02/23 08:56:15;;;;;;;15.90;8.30;;;;;;;-0.09;38.82;101522.84;108003;1257;61150;-71
2023/02/23 08:58:43;;;;;;;13.70;7.60;;;;;;;-0.06;38.62;101525.30;107946;1257;75134;-71
2023/02/23 09:01:17;;;;;;;14.90;8.30;;;;;;;-0.01;38.52;101523.89;107971;1260;71694;-72
2023/02/23 09:03:46;;;;;;;13.90;7.50;;;;;;;0.07;38.64;101515.61;107977;1257;72952;-71
2023/02/23 09:06:17;;;;;;;13.60;7.70;;;;;;;0.15;38.17;101515.13;107923;1257;61125;-72
2023/02/23 09:08:46;;;;;;;12.20;7.10;;;;;;;0.18;37.85;101520.08;107863;1257;61143;-71
2023/02/23 09:11:14;;;;;;;13.60;8.00;;;;;;;0.22;37.62;101519.45;107732;1257;75619;-72
2023/02/23 09:13:43;;;;;;;15.20;8.80;;;;;;;0.24;37.57;101525.89;107990;1257;73968;-74
2023/02/23 09:16:11;;;;;;;14.20;8.00;;;;;;;0.29;37.34;101523.46;107986;1256;72593;-71
2023/02/23 09:18:40;;;;;;;13.50;7.40;;;;;;;0.35;37.06;101526.15;108014;1259;61078;-73
2023/02/23 09:21:17;;;;;;;15.00;8.50;;;;;;;0.41;36.92;101530.73;107742;1257;60546;-73
2023/02/23 09:23:51;;;;;;;18.10;8.70;;;;;;;0.45;36.48;101532.90;107939;1259;74730;-73
2023/02/23 09:26:31;;;;;;;16.10;8.60;;;;;;;0.44;36.56;101531.79;107996;1257;72992;-73
2023/02/23 09:29:00;;;;;;;13.10;7.70;;;;;;;0.46;36.49;101530.59;107830;1257;73643;-73
2023/02/23 09:31:31;;;;;;;15.10;7.30;;;;;;;0.51;36.25;101530.40;108039;1256;61690;-72
2023/02/23 09:34:00;;;;;;;16.60;9.10;;;;;;;0.54;35.86;101530.22;107984;1257;61108;-73
2023/02/23 09:36:33;;;;;;;10.70;6.60;;;;;;;0.49;35.94;101525.83;107996;1259;74362;-73
2023/02/23 09:39:02;;;;;;;12.50;7.10;;;;;;;0.54;35.99;101528.81;107974;1257;73304;-73
2023/02/23 09:41:42;;;;;;;12.60;6.80;;;;;;;0.60;35.42;101531.14;107977;1259;73509;-72
2023/02/23 09:44:33;;;;;;;15.10;7.90;;;;;;;0.57;35.09;101535.15;107969;1257;61248;-71
2023/02/23 09:47:13;;;;;;;12.40;7.30;;;;;;;0.58;35.09;101534.53;108005;1257;60973;-71
2023/02/23 09:49:44;;;;;;;15.80;8.20;;;;;;;0.65;36.00;101532.21;108080;1257;74868;-71
2023/02/23 09:52:17;;;;;;;14.00;8.00;;;;;;;0.67;36.45;101529.52;108056;1257;71050;-70
2023/02/23 09:54:47;;;;;;;11.90;8.00;;;;;;;0.75;36.97;101528.12;107995;1257;72332;-71
2023/02/23 09:57:23;;;;;;;19.50;9.30;;;;;;;0.89;36.87;101528.17;107771;1256;61101;-71
2023/02/23 09:59:52;;;;;;;13.30;8.10;;;;;;;1.01;35.80;101529.73;107828;1257;61175;-71
2023/02/23 10:02:22;;;;;;;14.60;7.70;;;;;;;1.00;35.43;101529.95;108053;1257;73817;-70
2023/02/23 10:05:00;;;;;;;17.30;9.30;;;;;;;0.81;35.42;101525.64;108063;1257;72803;-70
2023/02/23 10:07:48;;;;;;;16.30;10.30;;;;;;;0.79;36.30;101519.79;108023;1257;71887;-70
2023/02/23 10:10:31;;;;;;;16.70;8.90;;;;;;;0.86;36.13;101519.67;107996;1257;61146;-70
2023/02/23 10:13:14;;;;;;;15.50;9.10;;;;;;;0.81;35.98;101516.92;107985;1257;59972;-70
2023/02/23 10:15:44;;;;;;;18.60;10.10;;;;;;;0.81;36.41;101517.41;107995;1257;74603;-70
2023/02/23 10:18:19;;;;;;;17.20;9.10;;;;;;;0.90;36.20;101516.46;108036;1257;71780;-70
2023/02/23 10:21:08;;;;;;;15.90;9.30;;;;;;;0.92;35.90;101515.30;107961;1257;72435;-69
2023/02/23 10:23:47;;;;;;;17.20;9.80;;;;;;;0.97;35.68;101516.52;107887;1258;61121;-69
2023/02/23 10:26:18;;;;;;;13.30;8.00;;;;;;;1.06;35.58;101515.55;107938;1259;60997;-71
2023/02/23 10:28:47;;;;;;;17.40;9.10;;;;;;;1.12;35.61;101508.76;107703;1257;75537;-69
2023/02/23 10:31:43;;;;;;;14.40;7.60;;;;;;;1.20;35.62;101506.67;107788;1258;74066;-70
2023/02/23 10:34:14;;;;;;;17.30;9.80;;;;;;;1.25;35.07;101510.08;107685;1258;71849;-68
2023/02/23 10:36:56;;;;;;;15.30;8.90;;;;;;;1.12;34.66;101511.06;103735;1258;5235105;-70
2023/02/23 10:39:24;;;;;;;13.50;7.00;;;;;;;1.04;34.92;101508.61;107799;1257;75562;-70
2023/02/23 10:41:54;;;;;;;11.30;5.90;;;;;;;1.13;35.09;101502.46;107746;1257;73009;-70
2023/02/23 10:44:24;;;;;;;13.50;8.10;;;;;;;1.33;35.21;101500.06;107991;1257;73025;-69
2023/02/23 10:46:59;;;;;;;15.30;7.40;;;;;;;1.53;35.25;101498.14;107926;1257;61211;-68
2023/02/23 10:49:36;;;;;;;11.80;6.60;;;;;;;1.73;35.32;101495.17;107655;1259;61111;-68
2023/02/23 10:52:12;;;;;;;9.80;5.50;;;;;;;1.91;34.96;101493.86;107713;1259;75580;-68
2023/02/23 10:54:46;;;;;;;15.60;8.10;;;;;;;2.03;33.75;101491.59;107955;1257;72995;-70
2023/02/23 10:57:33;;;;;;;15.40;8.40;;;;;;;1.90;32.58;101496.08;107876;1260;72878;-70
2023/02/23 11:00:31;;;;;;;12.60;8.30;;;;;;;1.65;33.06;101501.35;107762;1257;61689;-70
2023/02/23 11:03:00;;;;;;;14.50;7.10;;;;;;;1.49;33.16;101496.39;107850;1258;61361;-69
2023/02/23 11:05:35;;;;;;;12.60;7.00;;;;;;;1.51;33.28;101494.23;107935;1258;74865;-70
2023/02/23 11:08:20;;;;;;;15.10;8.40;;;;;;;1.50;32.95;101489.90;107914;1259;70582;-70
2023/02/23 11:10:55;;;;;;;11.60;6.80;;;;;;;1.54;33.32;101493.14;107966;1259;72912;-70
2023/02/23 11:13:25;;;;;;;13.20;7.60;;;;;;;1.61;33.42;101490.21;107964;1257;61154;-69
2023/02/23 11:15:59;;;;;;;14.30;7.50;;;;;;;1.71;32.95;101491.73;107997;1259;61124;-69
2023/02/23 11:18:32;;;;;;;14.60;8.40;;;;;;;1.82;32.95;101488.52;108008;1257;76217;-70
2023/02/23 11:21:11;;;;;;;11.70;6.60;;;;;;;1.94;32.60;101488.97;108044;1258;73063;-70
2023/02/23 11:23:39;;;;;;;10.20;6.50;;;;;;;2.02;32.73;101491.02;107991;1257;70893;-69
2023/02/23 11:26:33;;;;;;;13.10;7.30;;;;;;;2.03;31.71;101486.81;107772;1258;60091;-70
2023/02/23 11:29:11;;;;;;;11.70;6.70;;;;;;;1.91;31.81;101486.69;107719;1257;61805;-71
2023/02/23 11:31:47;;;;;;;7.80;4.70;;;;;;;1.94;32.18;101490.11;107775;1258;74722;-71
2023/02/23 11:34:31;;;;;;;13.10;6.10;;;;;;;2.05;32.31;101485.15;108163;1257;73657;-70
2023/02/23 11:37:22;;;;;;;11.50;7.00;;;;;;;2.15;31.74;101488.55;107981;1257;72637;-70
2023/02/23 11:40:58;;;;;;;14.10;6.50;;;;;;;2.19;31.45;101487.20;107924;1259;61271;-68
2023/02/23 11:43:27;;;;;;;9.00;5.70;;;;;;;2.23;31.34;101490.34;107910;1258;61132;-69
2023/02/23 11:45:57;;;;;;;11.20;6.20;;;;;;;2.26;30.94;101483.60;107995;1259;74994;-69
2023/02/23 11:48:29;;;;;;;11.10;6.00;;;;;;;2.24;30.30;101483.90;108008;1257;72082;-69
2023/02/23 11:50:57;;;;;;;11.70;6.60;;;;;;;2.21;30.39;101486.46;107784;1257;73619;-70
2023/02/23 11:53:31;;;;;;;10.40;6.00;;;;;;;2.22;30.09;101483.84;108008;1261;61081;-69
2023/02/23 11:56:06;;;;;;;11.20;6.70;;;;;;;2.21;30.49;101483.70;108020;1257;61270;-70
2023/02/23 11:58:48;;;;;;;13.40;6.60;;;;;;;2.25;29.89;101484.66;107803;1258;75225;-70
2023/02/23 12:01:19;;;;;;;10.80;6.10;;;;;;;2.24;30.08;101481.93;107794;1258;73508;-69
2023/02/23 12:03:49;;;;;;;;;;;;;;;2.30;29.66;101482.30;107852;1261;72334;-68
2023/02/23 12:06:31;;;;;;;10.90;5.80;;;;;;;2.35;29.50;101480.27;107901;1261;61120;-68
2023/02/23 12:09:03;;;;;;;10.70;5.60;;;;;;;2.37;29.39;101482.52;107969;1257;61077;-68
2023/02/23 12:11:36;;;;;;;11.30;5.80;;;;;;;2.39;29.28;101482.66;108110;1258;76006;-70
2023/02/23 12:14:16;;;;;;;10.50;5.90;;;;;;;2.39;29.28;101482.30;107963;1257;73373;-70
2023/02/23 12:16:47;;;;;;;8.90;5.10;;;;;;;2.38;29.51;101473.58;107891;1258;72376;-68
2023/02/23 12:19:27;;;;;;;7.50;4.20;;;;;;;2.48;29.65;101475.87;107608;1258;60205;-70
2023/02/23 12:22:17;;;;;;;10.80;5.80;;;;;;;2.56;29.33;101477.00;107726;1257;61253;-70
2023/02/23 12:25:18;;;;;;;7.70;4.90;;;;;;;2.62;29.10;101471.56;108011;1259;75958;-69
2023/02/23 12:28:17;;;;;;;9.60;5.50;;;;;;;2.59;28.35;101471.13;107892;1259;74911;-69
2023/02/23 12:31:06;;;;;;;9.00;4.90;;;;;;;2.50;28.31;101471.71;107979;1257;72202;-69
2023/02/23 12:33:46;;;;;;;12.10;5.60;;;;;;;2.43;28.18;101469.66;107893;1260;61856;-69
2023/02/23 12:36:15;;;;;;;9.50;5.30;;;;;;;2.46;28.21;101468.39;107678;1258;61107;-69
2023/02/23 12:38:55;;;;;;;7.90;4.60;;;;;;;2.65;27.99;101464.13;107735;1257;74915;-69
2023/02/23 12:41:48;;;;;;;8.80;4.90;;;;;;;2.71;27.64;101457.20;108009;1259;72859;-69
2023/02/23 12:44:38;;;;;;;9.30;5.00;;;;;;;2.71;27.51;101458.21;107971;1261;73941;-70
2023/02/23 12:47:15;;;;;;;8.90;5.20;;;;;;;2.75;27.25;101458.44;107929;1261;61461;-69
2023/02/23 12:49:45;;;;;;;8.50;5.00;;;;;;;2.77;27.17;101455.44;108022;1257;61233;-69
2023/02/23 12:52:24;;;;;;;7.70;4.30;;;;;;;2.80;27.04;101452.77;107980;1257;74124;-68
2023/02/23 12:54:52;;;;;;;9.20;4.50;;;;;;;2.85;26.90;101445.36;108005;1259;72091;-69
2023/02/23 12:57:37;;;;;;;7.60;4.70;;;;;;;2.87;26.85;101438.77;107747;1257;72782;-69
2023/02/23 13:00:31;;;;;;;8.40;4.20;;;;;;;2.86;26.79;101435.14;107996;1257;61240;-70
2023/02/23 13:03:37;;;;;;;8.50;4.80;;;;;;;2.71;26.65;101431.39;107972;1256;61213;-68